Terminal Aerodrome Forecast
Issued by NWS

Home | Current Version | Previous Version | Text Only | Print | Product List | Glossary Off
Versions: 1 2 3 4 5 6 7 8 9 10 11 12 13 14 15

171
FTUS43 KBIS 252219 AAA
TAFMOT
TAF AMD
KMOT 252219Z 2522/2618 01015KT P6SM BKN040
     FM260300 02009KT P6SM BKN045
     FM260600 36009KT P6SM SCT080=

USA.gov is the U.S. government's official web portal to all federal, state and local government web resources and services.